Pagrindinis puslapis
METAR-TAF:

METAR-TAF

Oro uostai :

Savonlinna, Suomija

platuma: 61-57N, ilguma: 028-57E, Aukštis: 95 m

Dabartinis oras

Ataskaita buvo paskelbta 12 minutes, ne 22:50 UTC
Vėjas 1 kt nuo kintamojo kryptimis
Temperatūra -3°C
Drėgmė 58%
Slėgis 1028 hPa
Matomumas 10 km arba daugiau
nėra debesų žemiau 1500 m ir nėra kamuolinių lietaus debesų

METAR: EFSA 052250Z AUTO VRB01KT CAVOK M03/M10 Q1028

Laikas: 02:02 (23:02 UTC)


TAF: trūkstamas

Orai ataskaitas ir orų prognozės (METAR, TAF).

turimą stotys yra geltonos ir raudonos taškus žemėlapyje.

Perkelti pele per norėdami pamatyti stoties vardą.

Tada spustelėkite, norėdami matyti oro stebėjimo ir prognozės.

Norėdami pakeisti žemėlapį: spustelėkite ant žalios mygtukų su juodo kryžiaus žemyn,; žalią mygtuką su brūkšneliu, jei norite nutolinti; arba žalių rodyklių gretimoms žemėlapius.


METAR-TAF: